Terminal Aerodrome Forecast
Issued by NWS

Home | Current Version | Previous Version | Text Only | Print | Product List | Glossary On
Versions: 1 2 3 4 5 6 7 8 9 10 11 12 13 14 15 16 17 18
000
FTUS43 KOAX 250123 AAC
TAFCDR
TAF AMD
KCDR 250123Z 2501/2524 15011KT P6SM VCTS BKN100CB
      TEMPO 2501/2502 VRB25G35KT 5SM -TSRA BKN060CB
     FM250200 36007KT P6SM VCTS OVC090CB
     FM250400 VRB05KT P6SM SCT100
     FM251500 27013KT P6SM SCT250=

USA.gov is the U.S. government's official web portal to all federal, state and local government web resources and services.